Edgemont, Pennsylvania
Current Conditions -  °F | °C
As of 2:54 PM on Thursday 30 Oct 2014 (Local Time) from KPHL Reporting Station
Overcast Overcast  
Wind Chill: 14°   Ceiling: 7000
Heat Index: 14°   Visibility: 10mi
Dew Point:   Wind: 7mph
Humidity: 47%   Direction: 290°WNW
Pressure: 29.99"   Gusts: NA
Location:  39.97°N, 75.45°W
Report Text: KPHL 301854Z 29006KT 10SM SCT044 OVC070 14/03 A2999 RMK AO2 SLP156 T01440033
Loading
Personal Weather Stations






























Interactive Weather Map
Tropical Storm Tracking
New forecast layout! Learn more

10-Day Weather Forecast

Advertisements
Track Severe Weather on mobile